Algowood — VCTD — position and weather

sailwx.info

Track history (hours):
 
Tides and Currents Weather Stations Pressure Air Temp Water Temp Dewpoint Dewpoint Depression Visibility Wind Speed Wind Dir Waves Ship Positions

Algowood

Last reported at 2016-May-24 04:22 UTC. Time now 2016-May-24 11:56 UTC.
Position N 43°17' W 079°22'.

Length 223 m; draft 8.1 m.

Type: Cargo ship. MMSI: 316001802.

Date/timePositionNaut miles runAvg speedWind from/ knotsBaromVisibWave heightAir tempDewpointWater temp
2016-May-24 04:22N 43°17' W 079°22'7 8.9
2016-May-24 03:33N 43°14' W 079°13'1 1.4
2016-May-24 02:33N 43°13' W 079°13'1 1.2
2016-May-24 01:34N 43°11' W 079°12'2 2.1
2016-May-24 00:29N 43°09' W 079°12'1 0.6
2016-May-23 22:30N 43°08' W 079°12'31 3.3
2016-May-23 13:05N 42°41' W 079°32'711.4
2016-May-23 12:26N 42°36' W 079°40'1011.4
2016-May-23 11:33N 42°30' W 079°51'1111.1
2016-May-23 10:32N 42°25' W 080°04'  
2016-May-18 11:33N 46°12' W 084°07'10 9.7
2016-May-18 10:33N 46°04' W 083°59'10 9.6
2016-May-18 09:33N 45°55' W 083°52'  
Track history (hours):
 
Tides and Currents Weather Stations Pressure Air Temp Water Temp Dewpoint Dewpoint Depression Visibility Wind Speed Wind Dir Waves Ship Positions

Algowood

Last reported at 2016-May-24 04:22 UTC. Time now 2016-May-24 11:56 UTC.
Position N 43°17' W 079°22'.

Length 223 m; draft 8.1 m.

Type: Cargo ship. MMSI: 316001802.

Date/timePositionNaut miles runAvg speedWind from/ knotsBaromVisibWave heightAir tempDewpointWater temp
2016-May-24 04:22N 43°17' W 079°22'7 8.9
2016-May-24 03:33N 43°14' W 079°13'1 1.4
2016-May-24 02:33N 43°13' W 079°13'1 1.2
2016-May-24 01:34N 43°11' W 079°12'2 2.1
2016-May-24 00:29N 43°09' W 079°12'1 0.6
2016-May-23 22:30N 43°08' W 079°12'31 3.3
2016-May-23 13:05N 42°41' W 079°32'711.4
2016-May-23 12:26N 42°36' W 079°40'1011.4
2016-May-23 11:33N 42°30' W 079°51'1111.1
2016-May-23 10:32N 42°25' W 080°04'  
2016-May-18 11:33N 46°12' W 084°07'10 9.7
2016-May-18 10:33N 46°04' W 083°59'10 9.6
2016-May-18 09:33N 45°55' W 083°52'  

Dump ship's entire track history